Time;durP1;ratioP1;P1;durP2;ratioP2;P2;SDS_P1;SDS_P2;PMS_P1;PMS_P2;Temp;Humidity;BMP_temperature;BMP_pressure;BME280_temperature;BME280_humidity;BME280_pressure;Samples;Min_cycle;Max_cycle;Signal;HPM_P1;HPM_P2
2022/03/11 00:01:18;;;;;;;;;;;7.50;40.50;;;7.15;38.57;100876.72;5011019;28;19926;-78
2022/03/11 00:03:45;;;;;;;;;;;7.40;40.60;;;7.15;38.11;100879.31;5006804;28;19929;-78
2022/03/11 00:06:12;;;;;;;;;;;8.30;40.90;;;7.12;38.92;100876.72;5007135;28;19933;-78
2022/03/11 00:08:39;;;;;;;;;;;9.30;41.80;;;7.10;38.80;100876.72;5020259;28;19926;-81
2022/03/11 00:11:06;;;;;;;;;;;7.30;40.80;;;7.11;38.68;100872.34;5009755;28;20405;-77
2022/03/11 00:13:34;;;;;;;;;;;7.30;40.70;;;7.05;39.07;100865.38;5014384;28;20298;-77
2022/03/11 00:16:02;;;;;;;;;;;7.30;41.20;;;7.05;39.41;100874.09;4994485;28;20552;-77
2022/03/11 00:18:29;;;;;;;;;;;7.30;41.40;;;7.01;39.54;100869.75;5025430;28;19972;-79
2022/03/11 00:20:56;;;;;;;;;;;7.30;41.50;;;6.99;39.91;100863.66;5000094;28;19933;-80
2022/03/11 00:23:23;;;;;;;;;;;7.30;41.50;;;6.95;39.95;100872.38;5027121;28;19925;-82
2022/03/11 00:25:50;;;;;;;;;;;7.20;41.90;;;6.95;40.47;100872.38;5023283;28;19940;-78
2022/03/11 00:28:17;;;;;;;;;;;7.20;41.80;;;6.90;40.09;100867.16;5030600;28;20025;-78
2022/03/11 00:30:44;;;;;;;;;;;9.30;42.90;;;6.91;40.48;100868.88;5004142;28;19933;-77
2022/03/11 00:33:11;;;;;;;;;;;7.20;42.00;;;6.87;40.55;100861.03;5006605;28;19930;-77
2022/03/11 00:35:39;;;;;;;;;;;7.20;42.20;;;6.88;40.82;100870.63;5010901;28;19925;-78
2022/03/11 00:38:06;;;;;;;;;;;7.60;42.40;;;6.84;40.48;100867.13;5011860;28;19991;-77
2022/03/11 00:40:33;;;;;;;;;;;7.10;42.10;;;6.83;40.80;100877.59;5013527;28;19958;-78
2022/03/11 00:43:01;;;;;;;;;;;7.10;42.50;;;6.79;41.47;100868.88;5007931;28;19933;-76
2022/03/11 00:45:28;;;;;;;;;;;7.20;42.50;;;6.76;41.72;100871.50;5010107;28;19925;-78
2022/03/11 00:47:55;;;;;;;;;;;7.10;42.90;;;6.74;42.09;100873.25;5037961;28;19949;-80
2022/03/11 00:50:22;;;;;;;;;;;7.00;43.20;;;6.75;41.70;100873.22;5019216;28;20024;-79
2022/03/11 00:52:50;;;;;;;;;;;7.40;43.10;;;6.78;41.65;100864.53;5016465;28;19973;-82
2022/03/11 00:55:17;;;;;;;;;;;7.00;42.90;;;6.69;41.72;100865.41;5021836;28;19936;-77
2022/03/11 00:57:44;;;;;;;;;;;7.30;43.20;;;6.69;42.13;100868.03;5014503;28;19930;-79
2022/03/11 01:00:12;;;;;;;;;;;8.90;44.10;;;6.66;42.57;100861.03;5017758;28;19979;-78
2022/03/11 01:02:41;;;;;;;;;;;6.90;43.50;;;6.62;43.11;100863.63;5012123;28;19929;-78
2022/03/11 01:05:09;;;;;;;;;;;6.90;43.80;;;6.63;42.79;100865.38;5010423;28;19936;-76
2022/03/11 01:07:37;;;;;;;;;;;6.80;43.50;;;6.61;43.61;100873.25;5013477;28;19936;-77
2022/03/11 01:10:05;;;;;;;;;;;8.00;44.20;;;6.58;43.33;100868.03;5012393;28;19929;-77
2022/03/11 01:12:32;;;;;;;;;;;6.80;44.00;;;6.58;43.60;100870.63;5032898;28;19926;-77
2022/03/11 01:14:59;;;;;;;;;;;6.80;44.40;;;6.53;43.55;100856.66;5010775;28;19953;-77
2022/03/11 01:17:26;;;;;;;;;;;6.80;44.30;;;6.49;44.08;100860.16;5017002;28;19944;-78
2022/03/11 01:19:53;;;;;;;;;;;7.90;45.00;;;6.47;43.98;100865.38;5013378;28;19929;-82
2022/03/11 01:22:20;;;;;;;;;;;6.80;44.40;;;6.49;43.64;100844.47;5027862;28;19930;-79
2022/03/11 01:24:47;;;;;;;;;;;8.80;45.40;;;6.43;44.48;100855.78;5014295;28;19926;-78
2022/03/11 01:27:16;;;;;;;;;;;6.70;44.80;;;6.41;44.89;100854.06;5012459;28;19929;-77
2022/03/11 01:29:43;;;;;;;;;;;6.70;44.90;;;6.35;44.83;100852.31;5036194;28;19981;-76
2022/03/11 01:32:10;;;;;;;;;;;6.60;44.60;;;6.34;44.11;100856.66;5029849;28;20020;-77
2022/03/11 01:34:37;;;;;;;;;;;8.10;45.60;;;6.35;44.96;100853.16;5031257;28;19964;-76
2022/03/11 01:37:04;;;;;;;;;;;6.60;44.90;;;6.31;44.27;100847.94;5028708;28;19983;-77
2022/03/11 01:39:32;;;;;;;;;;;6.60;45.00;;;6.26;44.57;100847.06;5022222;28;19971;-82
2022/03/11 01:41:59;;;;;;;;;;;6.50;44.80;;;6.16;45.67;100846.19;5018853;28;20029;-77
2022/03/11 01:44:27;;;;;;;;;;;6.50;45.70;;;6.23;45.21;100855.75;4995609;28;19934;-77
2022/03/11 01:46:54;;;;;;;;;;;9.00;46.70;;;6.20;45.43;100847.91;5013850;28;19926;-77
2022/03/11 01:49:22;;;;;;;;;;;6.40;45.50;;;6.19;46.03;100844.44;5007296;28;19941;-77
2022/03/11 01:51:49;;;;;;;;;;;6.50;46.10;;;6.08;47.00;100846.16;4992662;28;19954;-77
2022/03/11 01:54:16;;;;;;;;;;;6.50;46.60;;;6.07;46.67;100845.28;5002007;28;20027;-77
2022/03/11 01:56:43;;;;;;;;;;;6.60;46.70;;;6.06;47.04;100846.16;5030452;28;19952;-77
2022/03/11 01:59:11;;;;;;;;;;;6.40;46.70;;;6.02;47.11;100843.56;5031607;28;19936;-78
2022/03/11 02:01:38;;;;;;;;;;;6.40;46.90;;;6.04;46.93;100845.28;5057079;28;19983;-77
2022/03/11 02:04:06;;;;;;;;;;;6.30;46.40;;;5.96;47.74;100847.84;5035136;28;19929;-77
2022/03/11 02:06:33;;;;;;;;;;;6.70;47.30;;;5.97;47.72;100841.75;5030082;28;19968;-78
2022/03/11 02:09:01;;;;;;;;;;;6.20;47.10;;;5.96;48.23;100844.38;5021021;28;20739;-81
2022/03/11 02:11:28;;;;;;;;;;;6.20;47.20;;;5.93;47.89;100839.09;5018861;28;19936;-78
2022/03/11 02:13:58;;;;;;;;;;;6.30;47.40;;;5.92;48.28;100840.88;5000659;28;19936;-78
2022/03/11 02:16:30;;;;;;;;;;;7.10;48.00;;;5.88;48.63;100836.50;5018678;28;19930;-78
2022/03/11 02:18:58;;;;;;;;;;;6.20;47.70;;;5.89;48.41;100835.63;5025829;28;19932;-81
2022/03/11 02:21:27;;;;;;;;;;;6.10;47.70;;;5.85;49.16;100833.88;5040397;28;20021;-78
2022/03/11 02:23:56;;;;;;;;;;;6.20;48.00;;;5.88;49.54;100836.50;5012840;28;19941;-78
2022/03/11 02:26:25;;;;;;;;;;;6.10;48.20;;;5.81;49.16;100843.44;5000517;28;19933;-83
2022/03/11 02:28:54;;;;;;;;;;;6.10;48.40;;;5.82;49.93;100831.25;5024750;28;19929;-81
2022/03/11 02:31:22;;;;;;;;;;;6.70;49.20;;;5.80;49.67;100833.88;5016143;28;20174;-79
2022/03/11 02:33:49;;;;;;;;;;;6.10;49.50;;;5.73;50.48;100831.25;5019844;28;19925;-77
2022/03/11 02:36:18;;;;;;;;;;;4.40;48.40;;;5.68;50.31;100826.00;5055581;28;19929;-79
2022/03/11 02:38:45;;;;;;;;;;;6.10;49.40;;;5.62;51.72;100829.44;5036435;28;19925;-79
2022/03/11 02:41:12;;;;;;;;;;;6.00;50.20;;;5.71;51.31;100827.75;5037733;28;19992;-83
2022/03/11 02:43:41;;;;;;;;;;;6.00;50.00;;;5.69;51.79;100827.72;5033025;28;20012;-78
2022/03/11 02:46:09;;;;;;;;;;;6.00;50.70;;;5.63;51.52;100823.34;4999643;28;19930;-78
2022/03/11 02:48:37;;;;;;;;;;;6.00;50.60;;;5.61;52.17;100821.59;5000441;28;20341;-80
2022/03/11 02:51:04;;;;;;;;;;;6.00;50.80;;;5.59;51.77;100818.13;5048338;28;19925;-78
2022/03/11 02:53:31;;;;;;;;;;;5.90;50.80;;;5.58;52.66;100817.25;5037959;28;19929;-80
2022/03/11 02:55:59;;;;;;;;;;;5.90;51.50;;;5.56;52.70;100813.78;5015936;28;19926;-78
2022/03/11 02:58:26;;;;;;;;;;;5.90;51.80;;;5.48;54.35;100815.47;5030559;28;19983;-77
2022/03/11 03:00:53;;;;;;;;;;;5.90;52.60;;;5.49;54.11;100819.81;5031099;28;19925;-78
2022/03/11 03:03:20;;;;;;;;;;;5.80;52.60;;;5.46;54.56;100819.81;5000617;28;19930;-78
2022/03/11 03:05:47;;;;;;;;;;;5.80;53.20;;;5.37;55.73;100813.66;5014871;28;19969;-77
2022/03/11 03:08:14;;;;;;;;;;;6.90;54.50;;;5.38;54.92;100815.41;4999561;28;19925;-78
2022/03/11 03:10:41;;;;;;;;;;;5.70;53.50;;;5.36;55.60;100813.69;4999692;28;19937;-78
2022/03/11 03:13:08;;;;;;;;;;;5.70;55.10;;;5.37;55.88;100816.28;5017905;28;19929;-78
2022/03/11 03:15:36;;;;;;;;;;;5.70;54.70;;;5.40;55.99;100818.03;5022884;28;19937;-77
2022/03/11 03:18:03;;;;;;;;;;;5.60;55.10;;;5.41;55.75;100818.94;5032546;28;20008;-79
2022/03/11 03:20:30;;;;;;;;;;;5.70;55.20;;;5.34;56.31;100818.03;5025367;28;19967;-81
2022/03/11 03:22:57;;;;;;;;;;;5.70;56.00;;;5.35;55.97;100825.00;5038417;28;19925;-83
2022/03/11 03:25:24;;;;;;;;;;;5.70;56.10;;;5.27;56.75;100818.84;5024093;28;19936;-78
2022/03/11 03:27:51;;;;;;;;;;;6.10;56.70;;;5.28;57.07;100823.19;5034408;28;19936;-78
2022/03/11 03:30:19;;;;;;;;;;;5.60;57.00;;;5.21;57.27;100815.34;5036056;28;19925;-80
2022/03/11 03:32:46;;;;;;;;;;;5.70;57.40;;;5.19;57.83;100816.19;5038816;28;19961;-81
2022/03/11 03:35:13;;;;;;;;;;;5.50;57.60;;;5.23;57.30;100820.59;5042476;28;20024;-78
2022/03/11 03:37:41;;;;;;;;;;;5.50;57.90;;;5.15;56.79;100822.28;5053007;28;19925;-81
2022/03/11 03:40:09;;;;;;;;;;;5.60;57.90;;;5.13;57.69;100818.78;5013467;28;19929;-78
2022/03/11 03:42:36;;;;;;;;;;;5.50;58.50;;;5.11;57.40;100822.25;5013434;28;19955;-80
2022/03/11 03:45:05;;;;;;;;;;;5.50;58.70;;;5.14;56.98;100820.53;5005838;28;19926;-78
2022/03/11 03:47:32;;;;;;;;;;;7.80;60.20;;;5.05;57.35;100806.56;5022879;28;19940;-81
2022/03/11 03:49:58;;;;;;;;;;;5.40;59.10;;;5.02;57.10;100806.53;5012848;28;20013;-78
2022/03/11 03:52:27;;;;;;;;;;;5.40;59.00;;;5.02;57.66;100816.97;5011600;28;19930;-79
2022/03/11 03:54:56;;;;;;;;;;;5.40;59.50;;;4.98;57.47;100810.00;5016327;28;19949;-79
2022/03/11 03:57:25;;;;;;;;;;;5.30;59.20;;;4.98;57.26;100810.00;5014412;28;19932;-79
2022/03/11 03:59:52;;;;;;;;;;;5.30;59.90;;;4.94;57.22;100813.47;5030040;28;19964;-77
2022/03/11 04:02:19;;;;;;;;;;;6.00;60.20;;;4.97;57.59;100813.47;5031437;28;20353;-78
2022/03/11 04:04:46;;;;;;;;;;;5.30;60.40;;;4.87;56.76;100806.44;5021434;28;19930;-77
2022/03/11 04:07:13;;;;;;;;;;;6.60;60.80;;;4.86;57.13;100820.34;5030926;28;19932;-79
2022/03/11 04:09:40;;;;;;;;;;;5.20;60.00;;;4.83;56.39;100818.56;5013792;28;19940;-78
2022/03/11 04:12:09;;;;;;;;;;;5.10;59.80;;;4.76;55.66;100812.47;5012005;28;19936;-77
2022/03/11 04:14:37;;;;;;;;;;;5.20;59.70;;;4.79;56.07;100824.66;5010967;28;20406;-78
2022/03/11 04:17:04;;;;;;;;;;;6.50;60.30;;;4.76;54.93;100815.09;5017786;28;19992;-78
2022/03/11 04:19:31;;;;;;;;;;;5.20;59.30;;;4.68;55.56;100819.34;5031070;28;20458;-79
2022/03/11 04:21:58;;;;;;;;;;;5.10;59.60;;;4.63;55.55;100814.09;4997942;28;19925;-78
2022/03/11 04:24:25;;;;;;;;;;;5.40;59.70;;;4.66;55.85;100823.69;5013283;28;20430;-79
2022/03/11 04:26:52;;;;;;;;;;;5.10;60.00;;;4.60;55.94;100824.50;5014091;28;20080;-78
2022/03/11 04:29:19;;;;;;;;;;;6.80;60.80;;;4.58;55.40;100821.03;5013506;28;19926;-76
2022/03/11 04:31:45;;;;;;;;;;;7.20;61.20;;;4.56;55.83;100819.25;5028798;28;19929;-79
2022/03/11 04:34:12;;;;;;;;;;;5.70;60.40;;;4.56;55.79;100827.97;5010681;28;20529;-79
2022/03/11 04:36:39;;;;;;;;;;;4.90;59.90;;;4.50;55.59;100833.09;5011075;28;19944;-78
2022/03/11 04:39:08;;;;;;;;;;;4.90;59.90;;;4.49;56.31;100828.75;5028755;28;20310;-78
2022/03/11 04:41:35;;;;;;;;;;;4.90;60.50;;;4.48;55.84;100829.63;5012641;28;19975;-78
2022/03/11 04:44:03;;;;;;;;;;;6.00;60.80;;;4.47;55.94;100817.44;5027839;28;19936;-78
2022/03/11 04:46:30;;;;;;;;;;;4.90;60.50;;;4.38;55.81;100823.44;5012726;28;20027;-78
2022/03/11 04:48:57;;;;;;;;;;;4.80;60.10;;;4.38;55.19;100819.13;5012686;28;19961;-78
2022/03/11 04:51:25;;;;;;;;;;;2.70;58.70;;;4.31;55.41;100816.47;5012927;28;20383;-83
2022/03/11 04:53:52;;;;;;;;;;;4.70;60.30;;;4.32;55.37;100823.41;5020703;28;20391;-78
2022/03/11 04:56:19;;;;;;;;;;;4.60;60.00;;;4.32;54.48;100823.41;5012631;28;20330;-77
2022/03/11 04:58:46;;;;;;;;;;;4.70;59.50;;;4.31;54.11;100819.91;5013215;28;19993;-77
2022/03/11 05:01:13;;;;;;;;;;;4.70;58.90;;;4.22;54.49;100825.91;5008214;28;20395;-77
2022/03/11 05:03:40;;;;;;;;;;;4.70;59.30;;;4.22;53.91;100831.13;5029484;28;19964;-78
2022/03/11 05:06:10;;;;;;;;;;;5.30;59.40;;;4.20;54.57;100826.75;5010522;28;19925;-77
2022/03/11 05:08:37;;;;;;;;;;;5.00;59.70;;;4.17;53.77;100830.22;5025381;28;19968;-79
2022/03/11 05:11:04;;;;;;;;;;;4.60;58.80;;;4.15;53.92;100838.88;5009208;28;19926;-77
2022/03/11 05:13:32;;;;;;;;;;;5.70;59.50;;;4.09;53.06;100834.47;5023924;28;20367;-77
2022/03/11 05:15:59;;;;;;;;;;;4.50;58.40;;;4.07;53.16;100834.47;5007646;28;19926;-79
2022/03/11 05:18:26;;;;;;;;;;;4.50;58.30;;;4.04;52.88;100834.41;5008072;28;19930;-79
2022/03/11 05:20:53;;;;;;;;;;;3.10;57.60;;;4.02;52.45;100841.34;4993461;28;20362;-78
2022/03/11 05:23:21;;;;;;;;;;;4.50;58.00;;;4.00;52.39;100834.38;5025585;28;19929;-79
2022/03/11 05:25:48;;;;;;;;;;;5.10;58.00;;;3.90;52.57;100843.81;4993220;28;20346;-79
2022/03/11 05:28:15;;;;;;;;;;;6.20;58.60;;;3.90;52.21;100836.00;5011059;28;19933;-79
2022/03/11 05:30:42;;;;;;;;;;;4.40;57.30;;;3.90;51.84;100839.47;4993947;28;19941;-81
2022/03/11 05:33:14;;;;;;;;;;;4.40;57.30;;;3.92;51.54;100834.31;5009310;28;19929;-79
2022/03/11 05:35:41;;;;;;;;;;;4.30;56.70;;;3.86;51.46;100837.72;5007978;28;19930;-79
2022/03/11 05:38:08;;;;;;;;;;;5.00;57.30;;;3.86;51.41;100835.09;5027868;28;20521;-80
2022/03/11 05:40:36;;;;;;;;;;;4.30;56.90;;;3.87;50.90;100846.38;5002741;28;19976;-82
2022/03/11 05:43:02;;;;;;;;;;;4.70;56.60;;;3.84;50.54;100844.63;4997278;28;20004;-79
2022/03/11 05:45:30;;;;;;;;;;;6.40;57.40;;;3.76;50.52;100839.34;4999925;28;19926;-79
2022/03/11 05:47:57;;;;;;;;;;;5.80;57.20;;;3.68;50.71;100834.03;4998957;28;19929;-80
2022/03/11 05:50:24;;;;;;;;;;;4.10;57.00;;;3.65;50.33;100833.97;5031526;28;19992;-80
2022/03/11 05:52:51;;;;;;;;;;;4.20;55.90;;;3.68;50.13;100833.16;4998923;28;20401;-81
2022/03/11 05:55:18;;;;;;;;;;;6.30;57.10;;;3.65;50.24;100844.38;5032472;28;19933;-79
2022/03/11 05:57:45;;;;;;;;;;;4.10;55.80;;;3.57;50.09;100833.03;5028114;28;19929;-80
2022/03/11 06:00:12;;;;;;;;;;;6.10;57.10;;;3.62;49.49;100846.97;5027237;28;19925;-78
2022/03/11 06:02:40;;;;;;;;;;;4.10;55.20;;;3.58;49.85;100841.69;5014440;28;19926;-78
2022/03/11 06:05:11;;;;;;;;;;;4.00;55.50;;;3.60;49.31;100848.69;5016076;28;19926;-80
2022/03/11 06:07:39;;;;;;;;;;;4.10;55.10;;;3.57;49.42;100856.44;5013288;28;20032;-79
2022/03/11 06:10:07;;;;;;;;;;;4.00;54.70;;;3.58;48.84;100850.38;5015388;28;19972;-79
2022/03/11 06:12:34;;;;;;;;;;;4.10;54.70;;;3.61;48.94;100857.38;5015703;28;19929;-80
2022/03/11 06:15:07;;;;;;;;;;;5.40;55.50;;;3.59;48.37;100840.84;5015988;28;19976;-80
2022/03/11 06:17:34;;;;;;;;;;;2.00;53.30;;;3.60;48.53;100853.88;5031228;28;19935;-80
2022/03/11 06:20:01;;;;;;;;;;;4.00;54.30;;;3.64;48.72;100858.25;4998640;28;20458;-80
2022/03/11 06:22:28;;;;;;;;;;;4.20;54.40;;;3.67;48.13;100850.50;5015998;28;19926;-80
2022/03/11 06:24:56;;;;;;;;;;;4.90;54.30;;;3.61;48.22;100846.97;5031169;28;19972;-79
2022/03/11 06:27:26;;;;;;;;;;;4.90;54.00;;;3.59;47.69;100848.66;5030821;28;19960;-80
2022/03/11 06:29:53;;;;;;;;;;;4.00;53.30;;;3.57;48.05;100853.84;5015604;28;20353;-80
2022/03/11 06:32:20;;;;;;;;;;;5.10;54.10;;;3.54;47.70;100857.28;5031031;28;20028;-81
2022/03/11 06:34:48;;;;;;;;;;;4.00;53.40;;;3.58;47.96;100854.69;5015686;28;20060;-79
2022/03/11 06:37:16;;;;;;;;;;;5.50;53.90;;;3.64;47.21;100858.25;4998243;28;20305;-81
2022/03/11 06:39:42;;;;;;;;;;;4.00;53.00;;;3.60;47.03;100850.41;5012697;28;20375;-79
2022/03/11 06:42:11;;;;;;;;;;;4.00;53.00;;;3.61;47.08;100855.63;5013517;28;19929;-80
2022/03/11 06:44:38;;;;;;;;;;;5.10;53.10;;;3.64;46.72;100854.81;5013303;28;19965;-79
2022/03/11 06:47:05;;;;;;;;;;;4.00;52.40;;;3.66;46.71;100864.34;4997007;28;20060;-79
2022/03/11 06:49:32;;;;;;;;;;;4.10;52.40;;;3.68;46.51;100860.06;4996125;28;19972;-80
2022/03/11 06:51:59;;;;;;;;;;;4.10;52.20;;;3.77;46.28;100854.09;5032612;28;19913;-78
2022/03/11 06:54:26;;;;;;;;;;;6.20;53.10;;;3.74;46.01;100853.19;5010355;28;19964;-81
2022/03/11 06:56:53;;;;;;;;;;;4.20;51.70;;;3.71;46.15;100850.53;5016489;28;20032;-80
2022/03/11 06:59:20;;;;;;;;;;;4.20;51.70;;;3.79;45.75;100861.91;4982525;28;19930;-78
2022/03/11 07:01:47;;;;;;;;;;;4.10;51.50;;;3.81;45.81;100868.88;5014792;28;20458;-80
2022/03/11 07:04:17;;;;;;;;;;;4.70;51.70;;;3.82;45.74;100868.03;5000534;28;19926;-81
2022/03/11 07:06:44;;;;;;;;;;;4.20;51.40;;;3.87;45.33;100865.50;4999037;28;19979;-81
2022/03/11 07:09:11;;;;;;;;;;;5.30;51.50;;;3.87;45.24;100867.19;4998990;28;19925;-80
2022/03/11 07:11:38;;;;;;;;;;;6.30;52.00;;;3.87;44.99;100862.88;4998293;28;20012;-79
2022/03/11 07:14:05;;;;;;;;;;;4.20;50.50;;;3.90;45.11;100868.13;4997538;28;20057;-80
2022/03/11 07:16:32;;;;;;;;;;;4.30;50.70;;;3.99;45.01;100877.75;5029700;28;20024;-80
2022/03/11 07:18:59;;;;;;;;;;;4.80;50.80;;;3.97;44.48;100871.66;5012764;28;19930;-80
2022/03/11 07:21:26;;;;;;;;;;;5.10;50.50;;;4.07;44.51;100872.63;5030006;28;19936;-80
2022/03/11 07:23:56;;;;;;;;;;;4.40;50.50;;;4.11;44.11;100866.59;5015470;28;20116;-80
2022/03/11 07:26:23;;;;;;;;;;;4.50;49.90;;;4.02;44.05;100862.16;5012751;28;19941;-82
2022/03/11 07:28:50;;;;;;;;;;;4.40;49.80;;;4.16;44.16;100867.53;5015048;28;19964;-80
2022/03/11 07:31:17;;;;;;;;;;;5.10;50.10;;;4.23;44.26;100866.72;5014928;28;19988;-81
2022/03/11 07:33:44;;;;;;;;;;;4.50;50.10;;;4.23;43.88;100871.09;5001504;28;19932;-80
2022/03/11 07:36:11;;;;;;;;;;;4.60;49.70;;;4.24;43.83;100867.63;4999127;28;20028;-79
2022/03/11 07:38:38;;;;;;;;;;;4.80;49.70;;;4.29;43.88;100859.81;4999644;28;19929;-80
2022/03/11 07:41:07;;;;;;;;;;;4.70;49.50;;;4.33;43.44;100865.09;4999580;28;19931;-81
2022/03/11 07:43:35;;;;;;;;;;;3.90;48.90;;;4.39;43.47;100867.78;4998509;28;19983;-79
2022/03/11 07:46:02;;;;;;;;;;;6.10;49.90;;;4.41;43.25;100867.78;4997417;28;20462;-79
2022/03/11 07:48:29;;;;;;;;;;;4.70;49.20;;;4.42;43.32;100872.13;5014109;28;19964;-79
2022/03/11 07:50:56;;;;;;;;;;;6.00;49.50;;;4.44;43.05;100877.34;4997304;28;19929;-81
2022/03/11 07:53:24;;;;;;;;;;;4.90;48.80;;;4.55;42.94;100870.53;4980810;28;20036;-78
2022/03/11 07:55:51;;;;;;;;;;;6.70;49.70;;;4.61;42.58;100873.16;4997576;28;20452;-79
2022/03/11 07:58:21;;;;;;;;;;;4.90;48.70;;;4.60;42.72;100874.03;4997565;28;19960;-80
2022/03/11 08:00:48;;;;;;;;;;;5.00;48.40;;;4.70;42.37;100874.13;5031591;28;20439;-81
2022/03/11 08:03:19;;;;;;;;;;;4.90;48.20;;;4.74;42.20;100871.53;4998304;28;20020;-80
2022/03/11 08:05:47;;;;;;;;;;;5.00;48.20;;;4.81;42.24;100873.34;5019465;28;19929;-78
2022/03/11 08:08:15;;;;;;;;;;;5.00;48.30;;;4.88;41.94;100873.38;5014426;28;20029;-79
2022/03/11 08:10:42;;;;;;;;;;;5.40;47.80;;;4.92;42.04;100873.41;4999354;28;19932;-80
2022/03/11 08:13:31;;;;;;;;;;;5.20;48.10;;;4.97;42.26;100876.91;5012998;28;19980;-80
2022/03/11 08:15:59;;;;;;;;;;;5.30;48.50;;;5.03;42.40;100863.06;5013191;28;20016;-78
2022/03/11 08:18:27;;;;;;;;;;;5.30;48.20;;;5.15;42.43;100869.22;5013096;28;19929;-79
2022/03/11 08:20:54;;;;;;;;;;;7.50;49.30;;;5.30;42.49;100861.50;5016532;28;19929;-77
2022/03/11 08:23:24;;;;;;;;;;;5.10;48.30;;;5.35;42.00;100864.13;5003385;28;19929;-78
2022/03/11 08:25:54;;;;;;;;;;;5.70;48.50;;;5.49;41.82;100851.13;5014536;28;19925;-79
2022/03/11 08:28:22;;;;;;;;;;;5.80;48.10;;;5.67;41.22;100859.03;5010148;28;20437;-78
2022/03/11 08:30:49;;;;;;;;;;;5.90;47.40;;;5.74;41.11;100861.69;5010476;28;19926;-77
2022/03/11 08:33:22;;;;;;;;;;;5.90;47.30;;;5.81;40.71;100860.84;5009299;28;19984;-77
2022/03/11 08:36:09;;;;;;;;;;;6.70;47.50;;;5.78;40.67;100863.44;4997442;28;19925;-77
2022/03/11 08:38:39;;;;;;;;;;;6.10;46.80;;;5.84;40.24;100870.44;5009901;28;19947;-77
2022/03/11 08:41:08;;;;;;;;;;;6.10;46.40;;;5.86;40.12;100873.94;5011154;28;19935;-77
2022/03/11 08:43:38;;;;;;;;;;;7.80;47.20;;;5.90;39.92;100866.09;5027217;28;19926;-77
2022/03/11 08:46:08;;;;;;;;;;;6.10;46.50;;;5.99;40.17;100856.53;5026045;28;19972;-78
2022/03/11 08:48:36;;;;;;;;;;;6.20;46.50;;;5.99;40.13;100856.53;5027167;28;19929;-79
2022/03/11 08:51:04;;;;;;;;;;;6.30;46.60;;;6.07;40.21;100853.13;5024768;28;19926;-77
2022/03/11 08:53:31;;;;;;;;;;;6.20;46.60;;;6.18;40.52;100855.78;5008813;28;20036;-77
2022/03/11 08:55:58;;;;;;;;;;;6.90;47.00;;;6.23;40.11;100847.91;5024594;28;19932;-78
2022/03/11 08:58:26;;;;;;;;;;;6.40;47.10;;;6.33;40.21;100849.69;5024548;28;19933;-77
2022/03/11 09:00:53;;;;;;;;;;;6.50;46.50;;;6.37;39.70;100834.88;5024485;28;19926;-77
2022/03/11 09:03:37;;;;;;;;;;;6.50;46.40;;;6.42;39.96;100838.38;5009210;28;20010;-77
2022/03/11 09:06:07;;;;;;;;;;;6.60;46.50;;;6.48;39.36;100842.72;5008326;28;19926;-77
2022/03/11 09:08:34;;;;;;;;;;;6.60;46.20;;;6.53;39.51;100823.56;5024341;28;20024;-77
2022/03/11 09:11:23;;;;;;;;;;;7.00;46.40;;;6.55;39.74;100820.94;5023870;28;19924;-78
2022/03/11 09:13:50;;;;;;;;;;;6.80;46.10;;;6.62;39.50;100820.06;4992881;28;20048;-78
2022/03/11 09:16:17;;;;;;;;;;;7.10;46.40;;;6.77;39.73;100831.41;5009779;28;20403;-78
2022/03/11 09:18:44;;;;;;;;;;;6.90;46.40;;;6.85;40.07;100816.56;5009309;28;19929;-79
2022/03/11 09:21:12;;;;;;;;;;;6.90;46.50;;;6.92;39.90;100805.22;5009497;28;19965;-78
2022/03/11 09:24:00;;;;;;;;;;;7.00;46.40;;;7.01;40.18;100806.94;5012827;28;19928;-81
2022/03/11 09:26:27;;;;;;;;;;;7.40;46.60;;;7.06;39.61;100794.72;4993711;28;19973;-79
2022/03/11 09:29:14;;;;;;;;;;;7.10;46.30;;;7.14;39.84;100806.94;4993122;28;19934;-79
2022/03/11 09:31:41;;;;;;;;;;;7.20;46.20;;;7.24;39.62;100809.50;5009601;28;19929;-76
2022/03/11 09:34:08;;;;;;;;;;;7.30;46.10;;;7.33;39.27;100821.69;4990811;28;19929;-81
2022/03/11 09:36:36;;;;;;;;;;;9.20;47.10;;;7.36;39.02;100812.97;5018212;28;20590;-80
2022/03/11 09:39:03;;;;;;;;;;;7.50;45.80;;;7.51;39.40;100826.00;5012956;28;20040;-80
2022/03/11 09:41:30;;;;;;;;;;;8.30;46.30;;;7.56;39.48;100823.34;5001654;28;19926;-80
2022/03/11 09:43:57;;;;;;;;;;;8.20;46.20;;;7.63;39.52;100830.31;5010118;28;19926;-80
2022/03/11 09:46:25;;;;;;;;;;;7.60;46.10;;;7.66;38.63;100826.81;4997371;28;20382;-79
2022/03/11 09:48:52;;;;;;;;;;;7.70;45.50;;;7.75;38.41;100829.38;4997891;28;19932;-78
2022/03/11 09:51:27;;;;;;;;;;;7.80;45.40;;;7.85;38.18;100816.22;5014953;28;19951;-81
2022/03/11 09:53:54;;;;;;;;;;;7.90;45.30;;;7.98;38.04;100825.78;5013374;28;20035;-81
2022/03/11 09:56:21;;;;;;;;;;;8.40;45.30;;;8.03;38.14;100820.47;5029352;28;19972;-80
2022/03/11 09:58:48;;;;;;;;;;;8.10;45.30;;;8.07;38.07;100819.59;4997002;28;19929;-80
2022/03/11 10:01:15;;;;;;;;;;;8.10;45.00;;;8.15;38.50;100820.41;5013210;28;20028;-81
2022/03/11 10:03:42;;;;;;;;;;;8.30;45.20;;;8.17;37.75;100818.63;5014816;28;19929;-80
2022/03/11 10:06:09;;;;;;;;;;;8.50;45.00;;;8.29;37.53;100824.69;4996848;28;19925;-80
2022/03/11 10:08:43;;;;;;;;;;;8.50;44.90;;;8.33;38.17;100827.28;5013381;28;19929;-79
2022/03/11 10:11:24;;;;;;;;;;;8.30;45.00;;;8.42;37.82;100822.81;5013331;28;19964;-85
2022/03/11 10:14:05;;;;;;;;;;;8.40;45.10;;;8.45;37.96;100814.97;5028930;28;19979;-79
2022/03/11 10:16:32;;;;;;;;;;;8.50;44.70;;;8.56;37.49;100817.53;4996901;28;20023;-77
2022/03/11 10:19:07;;;;;;;;;;;8.60;44.70;;;8.56;37.08;100812.28;5013307;28;19965;-77
2022/03/11 10:21:38;;;;;;;;;;;8.60;44.30;;;8.72;37.22;100805.13;5029560;28;19993;-79
2022/03/11 10:24:11;;;;;;;;;;;8.70;44.50;;;8.87;36.98;100804.97;5016243;28;20361;-80
2022/03/11 10:27:07;;;;;;;;;;;8.70;44.40;;;8.98;36.88;100807.53;5028339;28;19961;-79
2022/03/11 10:30:01;;;;;;;;;;;8.90;44.20;;;9.18;36.73;100790.69;5015631;28;19955;-78
2022/03/11 10:32:28;;;;;;;;;;;9.10;44.10;;;9.27;36.49;100793.19;5031193;28;19926;-80
2022/03/11 10:35:07;;;;;;;;;;;9.30;44.00;;;9.32;36.48;100788.75;5015349;28;20131;-80
2022/03/11 10:37:34;;;;;;;;;;;8.60;43.50;;;9.44;36.48;100792.97;4997314;28;19948;-80
2022/03/11 10:40:10;;;;;;;;;;;9.40;44.10;;;9.51;36.51;100793.78;4995425;28;19976;-79
2022/03/11 10:42:41;;;;;;;;;;;9.50;43.90;;;9.60;36.10;100790.16;5014528;28;19984;-78
2022/03/11 10:45:08;;;;;;;;;;;9.50;43.60;;;9.66;36.06;100790.06;5018739;28;19925;-79
2022/03/11 10:47:40;;;;;;;;;;;9.60;43.60;;;9.65;35.88;100799.72;5027143;28;19929;-80
2022/03/11 10:50:12;;;;;;;;;;;10.30;43.70;;;9.73;36.22;100796.09;5030421;28;19936;-78
2022/03/11 10:52:45;;;;;;;;;;;9.70;43.70;;;9.86;35.98;100797.69;5032340;28;19937;-78
2022/03/11 10:55:22;;;;;;;;;;;9.80;43.60;;;10.04;35.56;100793.03;5044427;28;19929;-78
2022/03/11 10:57:58;;;;;;;;;;;9.90;43.10;;;10.02;35.29;100794.81;5026035;28;19925;-78
2022/03/11 11:00:35;;;;;;;;;;;10.00;43.10;;;10.12;35.32;100787.66;5014649;28;19972;-79
2022/03/11 11:03:05;;;;;;;;;;;10.00;43.40;;;10.14;34.74;100783.25;5014660;28;19925;-80
2022/03/11 11:05:32;;;;;;;;;;;11.50;43.30;;;10.19;34.98;100779.66;5013476;28;19931;-80
2022/03/11 11:08:01;;;;;;;;;;;10.70;42.90;;;10.30;34.98;100773.38;5029287;28;19929;-78
2022/03/11 11:10:30;;;;;;;;;;;10.30;42.60;;;10.43;35.11;100774.94;5031497;28;19929;-78
2022/03/11 11:12:57;;;;;;;;;;;10.70;43.10;;;10.48;35.10;100767.81;5014610;28;20743;-78
2022/03/11 11:15:24;;;;;;;;;;;10.40;42.70;;;10.50;34.68;100773.91;5014191;28;19932;-78
2022/03/11 11:17:53;;;;;;;;;;;10.50;42.40;;;10.72;34.67;100767.41;5013087;28;20302;-80
2022/03/11 11:20:39;;;;;;;;;;;10.20;42.30;;;10.84;34.84;100763.69;5010976;28;19929;-80
2022/03/11 11:23:07;;;;;;;;;;;10.70;42.50;;;10.91;34.21;100750.38;5011733;28;19929;-80
2022/03/11 11:25:37;;;;;;;;;;;10.90;42.20;;;11.03;34.28;100751.91;5016255;28;20017;-78
2022/03/11 11:28:14;;;;;;;;;;;10.90;42.30;;;11.09;33.91;100745.66;5008199;28;19932;-78
2022/03/11 11:30:41;;;;;;;;;;;11.00;42.00;;;11.22;34.05;100741.00;5030081;28;20024;-80